Nearby METAR Reports

 

KSNK - Snyder/Winston, Texas, USA
Distance from station: SSE 25mi, 41km
Updated: Thu, 09-Apr-2020 10:55am CDT
Overcast
Overcast
 Wind from NNE
Wind: NNE 9 mph , 15 km/h
Temperature: 61°F , 16°C
Dew Point: 46°F , 8°C
Humidity: 59%
Barometer: 30.03 inHg , 1016.9 hPa
Clouds: Overcast
Visibility: 10 miles , 16 km
Cloud details: Partly cloudy 4700 ft
Mostly cloudy 8500 ft
Overcast 11000 ft
2020/04/09 15:55 KSNK 091555Z AUTO 02008KT 10SM SCT047 BKN085 OVC110 16/08 A3003 RMK AO2 T01600084
KSWW - Sweetwater, Texas, USA
Distance from station: SE 56mi, 90km
Updated: Thu, 09-Apr-2020 10:55am CDT
Mostly cloudy
Mostly cloudy
 Wind from calm
Wind: Calm
Temperature: 61°F , 16°C
Dew Point: 50°F , 10°C
Humidity: 68%
Barometer: 30.05 inHg , 1017.6 hPa
Clouds: Mostly cloudy
Visibility: 10 miles , 16 km
Cloud details: Mostly cloudy 11000 ft
2020/04/09 15:55 KSWW 091555Z AUTO 00000KT 10SM BKN110 16/10 A3005 RMK AO2 T01630104
 
KLBB - Lubbock, Texas, USA
Distance from station: NW 59mi, 94km
Updated: Thu, 09-Apr-2020 10:53am CDT
Overcast
Overcast
 Wind from E
Wind: E 15 mph , 24 km/h
Temperature: 63°F , 17°C
Dew Point: 43°F , 6°C
Humidity: 49%
Barometer: 30.03 inHg , 1016.9 hPa
Clouds: Overcast
Visibility: 10 miles , 16 km
Cloud details: Partly cloudy 12000 ft
Mostly cloudy 15000 ft
Overcast 25000 ft
2020/04/09 15:53 KLBB 091553Z 08013KT 10SM SCT120 BKN150 OVC250 17/06 A3003 RMK AO2 SLP131 T01720056
KPVW - Plainview, Texas, USA
Distance from station: NNW 85mi, 137km
Updated: Thu, 09-Apr-2020 10:55am CDT
Clear
Clear
 Wind from E
Wind: E 15 mph , 24 km/h
Temperature: 59°F , 15°C
Dew Point: 41°F , 5°C
Humidity: 51%
Barometer: 30.05 inHg , 1017.6 hPa
Clouds: Clear
Visibility: 10 miles , 16 km
2020/04/09 15:55 KPVW 091555Z AUTO 08013KT 10SM CLR 15/05 A3005 RMK AO2 T01510047
 
KDYS - Dyess Afb/Abilen, Texas, USA
Distance from station: ESE 88mi, 141km
Updated: Thu, 09-Apr-2020 10:56am CDT
Mostly cloudy
Mostly cloudy
 Wind from NNW
Wind: NNW 6 mph , 9 km/h
Temperature: 63°F , 17°C
Dew Point: 52°F , 11°C
Humidity: 68%
Barometer: 29.98 inHg , 1015.2 hPa
Clouds: Mostly cloudy
Visibility: 10 miles , 16 km
Cloud details: Few Clouds 8000 ft
Mostly cloudy 11000 ft
2020/04/09 15:56 KDYS 091556Z AUTO 33005KT 10SM FEW080 BKN110 17/11 A2998 RMK AO2 SLP126
KGNC - Seminole, Texas, USA
Distance from station: WSW 89mi, 144km
Updated: Thu, 09-Apr-2020 10:55am CDT
Overcast
Overcast
 Wind from calm
Wind: Calm
Temperature: 63°F , 17°C
Dew Point: 45°F , 7°C
Humidity: 52%
Barometer: 30.08 inHg , 1018.6 hPa
Clouds: Overcast
Visibility: 10 miles , 16 km
Cloud details: Overcast 10000 ft
2020/04/09 15:55 KGNC 091555Z AUTO 00000KT 10SM OVC100 17/07 A3008 RMK AO2 T01720065
 
KE11 - Andrews, Texas, USA
Distance from station: WSW 93mi, 149km
Updated: Thu, 09-Apr-2020 10:55am CDT
Clear
Clear
 Wind from calm
Wind: Calm
Temperature: 72°F , 22°C
Dew Point: 39°F , 4°C
Humidity: 31%
Barometer: 30.03 inHg , 1016.9 hPa
Clouds: Clear
Visibility: 10 miles , 16 km
2020/04/09 15:55 KE11 091555Z AUTO 00000KT 10SM CLR 22/04 A3003 RMK AO2 T02210036
KABI - Abilene, Texas, USA
Distance from station: ESE 96mi, 154km
Updated: Thu, 09-Apr-2020 10:52am CDT
Mostly cloudy
Mostly cloudy
 Wind from N
Wind: N 6 mph , 9 km/h
Temperature: 64°F , 18°C
Dew Point: 55°F , 13°C
Humidity: 73%
Barometer: 29.99 inHg , 1015.6 hPa
Clouds: Mostly cloudy
Visibility: 10 miles , 16 km
Cloud details: Few Clouds 6500 ft
Mostly cloudy 11000 ft
2020/04/09 15:52 KABI 091552Z 35005KT 10SM FEW065 BKN110 18/13 A2999 RMK AO2 SLP138 T01780128
 
KMAF - Midland, Texas, USA
Distance from station: SW 96mi, 154km
Updated: Thu, 09-Apr-2020 10:53am CDT
Overcast
Overcast
 Wind from SW
Wind: SW 5 mph , 7 km/h
Temperature: 79°F , 26°C
Dew Point: 48°F , 9°C
Humidity: 34%
Barometer: 30.00 inHg , 1015.9 hPa
Clouds: Overcast
Visibility: 10 miles , 16 km
Cloud details: Partly cloudy 8500 ft
Overcast 11000 ft
2020/04/09 15:53 KMAF 091553Z 23004KT 10SM SCT085 OVC110 26/09 A3000 RMK AO2 SLP118 T02560089
KCDS - Childress, Texas, USA
Distance from station: NNE 110mi, 177km
Updated: Thu, 09-Apr-2020 10:53am CDT
Clear
Clear
 Wind from NE
Wind: NE 16 mph , 26 km/h, Gust: 21 mph , 33 km/h
Temperature: 59°F , 15°C
Dew Point: 43°F , 6°C
Humidity: 55%
Barometer: 30.07 inHg , 1018.3 hPa
Clouds: Clear
Visibility: 10 miles , 16 km
2020/04/09 15:53 KCDS 091553Z AUTO 04014G18KT 10SM CLR 15/06 A3007 RMK AO2 SLP168 T01500061
 
KSJT - San Angelo, Texas, USA
Distance from station: SSE 121mi, 194km
Updated: Thu, 09-Apr-2020 10:51am CDT
Mostly cloudy
Mostly cloudy
 Wind from NW
Wind: NW 5 mph , 7 km/h
Temperature: 70°F , 21°C
Dew Point: 59°F , 15°C
Humidity: 69%
Barometer: 29.96 inHg , 1014.6 hPa
Clouds: Mostly cloudy
Visibility: 10 miles , 16 km
Cloud details: Few Clouds 5500 ft
Mostly cloudy 10000 ft
2020/04/09 15:51 KSJT 091551Z 32004KT 10SM FEW055 BKN100 21/15 A2996 RMK AO2 LTG DSNT N AND NE RAB26E36 SLP129 P0000 T02110150
KHOB - Hobbs/Lea Co., New Mexico, USA
Distance from station: WSW 122mi, 196km
Updated: Thu, 09-Apr-2020 10:50am CDT

 
Visibility: 0 mile , 0 km
2020/04/09 15:50 KHOB 091550Z 0000KT 10SM OVC090 19/06 A3003
 
KCOM - Coleman Muni, Texas, USA
Distance from station: SE 131mi, 212km
Updated: Thu, 09-Apr-2020 10:55am CDT
Mostly cloudy
Mostly cloudy
 Wind from calm
Wind: Calm
Temperature: 70°F , 21°C
Dew Point: 50°F , 10°C
Humidity: 50%
Barometer: 29.96 inHg , 1014.6 hPa
Clouds: Mostly cloudy
Visibility: 10 miles , 16 km
Cloud details: Partly cloudy 4800 ft
Partly cloudy 7000 ft
Mostly cloudy 11000 ft
2020/04/09 15:55 KCOM 091555Z AUTO 00000KT 10SM SCT048 SCT070 BKN110 21/10 A2996 RMK AO2 LTG DSNT W T02070104
KBKD - Breckenridge, Texas, USA
Distance from station: E 134mi, 215km
Updated: Thu, 09-Apr-2020 10:55am CDT
Clear
Clear
 Wind from calm
Wind: Calm
Temperature: 68°F , 20°C
Dew Point: 55°F , 13°C
Humidity: 64%
Barometer: 29.97 inHg , 1014.9 hPa
Clouds: Clear
Visibility: 7 miles , 11 km
2020/04/09 15:55 KBKD 091555Z AUTO 00000KT 7SM CLR 20/13 A2997 RMK AO2 T02000128
 
KF05 - Vernon Wilbarger, Texas, USA
Distance from station: NE 137mi, 220km
Updated: Thu, 09-Apr-2020 10:55am CDT
Clear
Clear
 Wind from NNE
Wind: NNE 13 mph , 20 km/h, Gust: 20 mph , 31 km/h
Temperature: 64°F , 18°C
Dew Point: 50°F , 10°C
Humidity: 60%
Barometer: 30.05 inHg , 1017.6 hPa
Clouds: Clear
Visibility: 10 miles , 16 km
2020/04/09 15:55 KF05 091555Z AUTO 02011G17KT 10SM CLR 18/10 A3005 RMK AO1 T01810095